Gambler — LELC — position and weather

sailwx.info

Track history (hours):
 
Tides and Currents Weather Stations Pressure Air Temp Water Temp Dewpoint Dewpoint Depression Visibility Wind Speed Wind Dir Waves Ship Positions

Gambler

Last reported at 2015-Jan-16 10:23 UTC. Time now 2015-Jan-26 12:31 UTC.
Position N 64°47' E 011°04'.
Warning: this ship's position is 10 days out of date.

Length 70 m; draft 6 m.

Type: Fishing. MMSI: 258412000.

Date/timePositionNaut miles runAvg speedWind from/ knotsBaromVisibWave heightAir tempDewpointWater temp
2015-Jan-16 10:23N 64°47' E 011°04'911.3
2015-Jan-16 09:33N 64°54' E 011°20'2311.2
2015-Jan-16 07:29N 65°12' E 011°52'7610.8
2015-Jan-16 00:31N 66°23' E 012°58'1410.4
2015-Jan-15 23:12N 66°36' E 013°04'5611.2
2015-Jan-15 18:14N 67°26' E 014°08'  
2015-Jan-13 12:33N 67°42' E 014°31'1210.3
2015-Jan-13 11:26N 67°31' E 014°32'910.0
2015-Jan-13 10:33N 67°23' E 014°25'10 9.9
2015-Jan-13 09:33N 67°15' E 014°10'17 8.3
2015-Jan-13 07:32N 67°01' E 013°44'40 9.6
2015-Jan-13 03:24N 66°26' E 012°59'910.3
2015-Jan-13 02:31N 66°17' E 012°56'1110.3
2015-Jan-13 01:29N 66°07' E 012°45'1010.3
2015-Jan-13 00:31N 65°59' E 012°29'214 9.7
2015-Jan-12 02:25N 63°07' E 007°34'1210.8
2015-Jan-12 01:18N 63°01' E 007°09'  
Track history (hours):
 
Tides and Currents Weather Stations Pressure Air Temp Water Temp Dewpoint Dewpoint Depression Visibility Wind Speed Wind Dir Waves Ship Positions

Gambler

Last reported at 2015-Jan-16 10:23 UTC. Time now 2015-Jan-26 12:31 UTC.
Position N 64°47' E 011°04'.
Warning: this ship's position is 10 days out of date.

Length 70 m; draft 6 m.

Type: Fishing. MMSI: 258412000.

Date/timePositionNaut miles runAvg speedWind from/ knotsBaromVisibWave heightAir tempDewpointWater temp
2015-Jan-16 10:23N 64°47' E 011°04'911.3
2015-Jan-16 09:33N 64°54' E 011°20'2311.2
2015-Jan-16 07:29N 65°12' E 011°52'7610.8
2015-Jan-16 00:31N 66°23' E 012°58'1410.4
2015-Jan-15 23:12N 66°36' E 013°04'5611.2
2015-Jan-15 18:14N 67°26' E 014°08'  
2015-Jan-13 12:33N 67°42' E 014°31'1210.3
2015-Jan-13 11:26N 67°31' E 014°32'910.0
2015-Jan-13 10:33N 67°23' E 014°25'10 9.9
2015-Jan-13 09:33N 67°15' E 014°10'17 8.3
2015-Jan-13 07:32N 67°01' E 013°44'40 9.6
2015-Jan-13 03:24N 66°26' E 012°59'910.3
2015-Jan-13 02:31N 66°17' E 012°56'1110.3
2015-Jan-13 01:29N 66°07' E 012°45'1010.3
2015-Jan-13 00:31N 65°59' E 012°29'214 9.7
2015-Jan-12 02:25N 63°07' E 007°34'1210.8
2015-Jan-12 01:18N 63°01' E 007°09'  

Dump ship's entire track history